Calgary (YYC/CYYC)

Information

Location
Calgary, AB, Canada
Local Time
23:34 / 11:34 pm
GMT Time
06:34 / 6:34 am
Gates
Unassigned
No FAA reported delays
METAR CYYC 220600Z 00000KT 5SM BR BKN086 M03/M04 A2973 RMK FG2AC4 SLP118
TAF TAF CYYC 220541Z 2206/2306 VRB03KT 5SM BR SCT080 BKN200 TEMPO 2206/2209 1SM BR SCT003 BKN200 PROB40 2206/2209 1/4SM FZFG VV002 FM220900 34010KT 3/4SM BR BKN003 TEMPO 2209/2216 2SM BR SCT003 BKN200 FM221600 35010KT 6SM BR OVC015 TEMPO 2216/2219 1SM -SHSN B
  • No charts available